sensor_id;sensor_type;location;lat;lon;timestamp;temperature;humidity
13682;DHT22;6913;49.892;7.936;2023-05-29T00:00:11;12.80;99.90
13682;DHT22;6913;49.892;7.936;2023-05-29T00:02:38;12.90;99.90
13682;DHT22;6913;49.892;7.936;2023-05-29T00:05:09;13.00;99.90
13682;DHT22;6913;49.892;7.936;2023-05-29T00:07:39;13.00;99.90
13682;DHT22;6913;49.892;7.936;2023-05-29T00:10:07;12.90;99.90
13682;DHT22;6913;49.892;7.936;2023-05-29T00:12:34;12.80;99.90
13682;DHT22;6913;49.892;7.936;2023-05-29T00:15:01;12.90;99.90
13682;DHT22;6913;49.892;7.936;2023-05-29T00:17:29;12.40;99.90
13682;DHT22;6913;49.892;7.936;2023-05-29T00:19:57;12.10;99.90
13682;DHT22;6913;49.892;7.936;2023-05-29T00:22:24;12.20;99.90
13682;DHT22;6913;49.892;7.936;2023-05-29T00:24:53;12.10;99.90
13682;DHT22;6913;49.892;7.936;2023-05-29T00:27:20;12.20;99.90
13682;DHT22;6913;49.892;7.936;2023-05-29T00:29:46;12.30;99.90
13682;DHT22;6913;49.892;7.936;2023-05-29T00:32:13;11.90;99.90
13682;DHT22;6913;49.892;7.936;2023-05-29T00:34:40;12.00;99.90
13682;DHT22;6913;49.892;7.936;2023-05-29T00:37:07;11.90;99.90
13682;DHT22;6913;49.892;7.936;2023-05-29T00:39:33;11.90;99.90
13682;DHT22;6913;49.892;7.936;2023-05-29T00:42:02;11.80;99.90
13682;DHT22;6913;49.892;7.936;2023-05-29T00:44:28;11.80;99.90
13682;DHT22;6913;49.892;7.936;2023-05-29T00:46:55;11.70;99.90
13682;DHT22;6913;49.892;7.936;2023-05-29T00:49:24;11.70;99.90
13682;DHT22;6913;49.892;7.936;2023-05-29T00:51:53;11.70;99.90
13682;DHT22;6913;49.892;7.936;2023-05-29T00:54:23;11.40;99.90
13682;DHT22;6913;49.892;7.936;2023-05-29T00:56:53;11.40;99.90
13682;DHT22;6913;49.892;7.936;2023-05-29T00:59:21;11.30;99.90
13682;DHT22;6913;49.892;7.936;2023-05-29T01:01:49;11.40;99.90
13682;DHT22;6913;49.892;7.936;2023-05-29T01:04:16;11.10;99.90
13682;DHT22;6913;49.892;7.936;2023-05-29T01:06:43;11.00;99.90
13682;DHT22;6913;49.892;7.936;2023-05-29T01:09:11;11.10;99.90
13682;DHT22;6913;49.892;7.936;2023-05-29T01:11:44;11.10;99.90
13682;DHT22;6913;49.892;7.936;2023-05-29T01:14:20;11.10;99.90
13682;DHT22;6913;49.892;7.936;2023-05-29T01:16:59;11.20;99.90
13682;DHT22;6913;49.892;7.936;2023-05-29T01:22:31;11.20;99.90
13682;DHT22;6913;49.892;7.936;2023-05-29T01:25:11;11.20;99.90
13682;DHT22;6913;49.892;7.936;2023-05-29T01:27:41;11.30;99.90
13682;DHT22;6913;49.892;7.936;2023-05-29T01:30:11;11.30;99.90
13682;DHT22;6913;49.892;7.936;2023-05-29T01:32:39;11.30;99.90
13682;DHT22;6913;49.892;7.936;2023-05-29T01:35:07;11.30;99.90
13682;DHT22;6913;49.892;7.936;2023-05-29T01:37:34;11.30;99.90
13682;DHT22;6913;49.892;7.936;2023-05-29T01:40:01;11.20;99.90
13682;DHT22;6913;49.892;7.936;2023-05-29T01:42:29;11.10;99.90
13682;DHT22;6913;49.892;7.936;2023-05-29T01:44:57;11.00;99.90
13682;DHT22;6913;49.892;7.936;2023-05-29T01:47:25;11.00;99.90
13682;DHT22;6913;49.892;7.936;2023-05-29T01:49:52;11.30;99.90
13682;DHT22;6913;49.892;7.936;2023-05-29T01:52:21;10.70;99.90
13682;DHT22;6913;49.892;7.936;2023-05-29T01:54:47;10.70;99.90
13682;DHT22;6913;49.892;7.936;2023-05-29T01:57:14;10.40;99.90
13682;DHT22;6913;49.892;7.936;2023-05-29T01:59:42;10.50;99.90
13682;DHT22;6913;49.892;7.936;2023-05-29T02:02:10;10.60;99.90
13682;DHT22;6913;49.892;7.936;2023-05-29T02:04:37;10.60;99.90
13682;DHT22;6913;49.892;7.936;2023-05-29T02:07:04;10.40;99.90
13682;DHT22;6913;49.892;7.936;2023-05-29T02:09:31;10.20;99.90
13682;DHT22;6913;49.892;7.936;2023-05-29T02:11:58;9.90;99.90
13682;DHT22;6913;49.892;7.936;2023-05-29T02:14:26;10.00;99.90
13682;DHT22;6913;49.892;7.936;2023-05-29T02:16:52;9.90;99.90
13682;DHT22;6913;49.892;7.936;2023-05-29T02:19:21;10.10;99.90
13682;DHT22;6913;49.892;7.936;2023-05-29T02:21:50;10.00;99.90
13682;DHT22;6913;49.892;7.936;2023-05-29T02:24:17;10.20;99.90
13682;DHT22;6913;49.892;7.936;2023-05-29T02:26:45;10.20;99.90
13682;DHT22;6913;49.892;7.936;2023-05-29T02:29:12;10.30;99.90
13682;DHT22;6913;49.892;7.936;2023-05-29T02:31:39;10.40;99.90
13682;DHT22;6913;49.892;7.936;2023-05-29T02:34:05;10.20;99.90
13682;DHT22;6913;49.892;7.936;2023-05-29T02:36:33;10.00;99.90
13682;DHT22;6913;49.892;7.936;2023-05-29T02:39:02;10.10;99.90
13682;DHT22;6913;49.892;7.936;2023-05-29T02:41:29;10.00;99.90
13682;DHT22;6913;49.892;7.936;2023-05-29T02:43:56;10.00;99.90
13682;DHT22;6913;49.892;7.936;2023-05-29T02:46:23;10.00;99.90
13682;DHT22;6913;49.892;7.936;2023-05-29T02:48:49;10.00;99.90
13682;DHT22;6913;49.892;7.936;2023-05-29T02:51:16;9.90;99.90
13682;DHT22;6913;49.892;7.936;2023-05-29T02:53:44;9.90;99.90
13682;DHT22;6913;49.892;7.936;2023-05-29T02:56:11;9.90;99.90
13682;DHT22;6913;49.892;7.936;2023-05-29T02:58:38;9.80;99.90
13682;DHT22;6913;49.892;7.936;2023-05-29T03:01:05;9.60;99.90
13682;DHT22;6913;49.892;7.936;2023-05-29T03:03:31;9.50;99.90
13682;DHT22;6913;49.892;7.936;2023-05-29T03:05:58;9.50;99.90
13682;DHT22;6913;49.892;7.936;2023-05-29T03:08:26;9.80;99.90
13682;DHT22;6913;49.892;7.936;2023-05-29T03:10:55;9.80;99.90
13682;DHT22;6913;49.892;7.936;2023-05-29T03:13:22;9.60;99.90
13682;DHT22;6913;49.892;7.936;2023-05-29T03:15:49;9.70;99.90
13682;DHT22;6913;49.892;7.936;2023-05-29T03:18:16;9.40;99.90
13682;DHT22;6913;49.892;7.936;2023-05-29T03:20:43;9.30;99.90
13682;DHT22;6913;49.892;7.936;2023-05-29T03:23:10;9.30;99.90
13682;DHT22;6913;49.892;7.936;2023-05-29T03:25:36;9.20;99.90
13682;DHT22;6913;49.892;7.936;2023-05-29T03:28:04;9.20;99.90
13682;DHT22;6913;49.892;7.936;2023-05-29T03:30:31;9.50;99.90
13682;DHT22;6913;49.892;7.936;2023-05-29T03:32:58;9.30;99.90
13682;DHT22;6913;49.892;7.936;2023-05-29T03:35:28;9.30;99.90
13682;DHT22;6913;49.892;7.936;2023-05-29T03:37:55;9.20;99.90
13682;DHT22;6913;49.892;7.936;2023-05-29T03:40:22;9.20;99.90
13682;DHT22;6913;49.892;7.936;2023-05-29T03:42:49;9.20;99.90
13682;DHT22;6913;49.892;7.936;2023-05-29T03:45:17;9.20;99.90
13682;DHT22;6913;49.892;7.936;2023-05-29T03:47:44;9.20;99.90
13682;DHT22;6913;49.892;7.936;2023-05-29T03:50:11;9.20;99.90
13682;DHT22;6913;49.892;7.936;2023-05-29T03:52:40;9.30;99.90
13682;DHT22;6913;49.892;7.936;2023-05-29T03:55:09;9.20;99.90
13682;DHT22;6913;49.892;7.936;2023-05-29T03:57:38;9.30;99.90
13682;DHT22;6913;49.892;7.936;2023-05-29T04:00:07;9.20;99.90
13682;DHT22;6913;49.892;7.936;2023-05-29T04:02:37;9.20;99.90
13682;DHT22;6913;49.892;7.936;2023-05-29T04:05:05;9.40;99.90
13682;DHT22;6913;49.892;7.936;2023-05-29T04:07:32;9.70;99.90
13682;DHT22;6913;49.892;7.936;2023-05-29T04:09:59;10.20;99.90
13682;DHT22;6913;49.892;7.936;2023-05-29T04:12:26;10.70;99.90
13682;DHT22;6913;49.892;7.936;2023-05-29T04:14:53;11.20;99.90
13682;DHT22;6913;49.892;7.936;2023-05-29T04:17:20;11.70;99.90
13682;DHT22;6913;49.892;7.936;2023-05-29T04:19:48;12.20;99.90
13682;DHT22;6913;49.892;7.936;2023-05-29T04:22:15;12.40;99.90
13682;DHT22;6913;49.892;7.936;2023-05-29T04:24:41;12.80;99.90
13682;DHT22;6913;49.892;7.936;2023-05-29T04:27:08;13.10;99.90
13682;DHT22;6913;49.892;7.936;2023-05-29T04:29:38;13.50;99.90
13682;DHT22;6913;49.892;7.936;2023-05-29T04:32:06;13.80;99.90
13682;DHT22;6913;49.892;7.936;2023-05-29T04:34:33;14.10;99.90
13682;DHT22;6913;49.892;7.936;2023-05-29T04:37:02;14.30;99.90
13682;DHT22;6913;49.892;7.936;2023-05-29T04:39:29;14.60;99.90
13682;DHT22;6913;49.892;7.936;2023-05-29T04:41:56;14.90;99.90
13682;DHT22;6913;49.892;7.936;2023-05-29T04:44:24;15.20;99.90
13682;DHT22;6913;49.892;7.936;2023-05-29T04:46:52;15.30;99.90
13682;DHT22;6913;49.892;7.936;2023-05-29T04:49:19;15.70;99.90
13682;DHT22;6913;49.892;7.936;2023-05-29T04:51:46;15.70;99.90
13682;DHT22;6913;49.892;7.936;2023-05-29T04:54:14;16.20;99.90
13682;DHT22;6913;49.892;7.936;2023-05-29T04:56:42;16.00;99.90
13682;DHT22;6913;49.892;7.936;2023-05-29T04:59:08;16.10;99.90
13682;DHT22;6913;49.892;7.936;2023-05-29T05:01:35;16.30;99.90
13682;DHT22;6913;49.892;7.936;2023-05-29T05:04:02;16.50;99.90
13682;DHT22;6913;49.892;7.936;2023-05-29T05:06:29;16.50;99.90
13682;DHT22;6913;49.892;7.936;2023-05-29T05:08:55;16.70;99.90
13682;DHT22;6913;49.892;7.936;2023-05-29T05:11:24;16.90;99.90
13682;DHT22;6913;49.892;7.936;2023-05-29T05:13:51;17.10;99.90
13682;DHT22;6913;49.892;7.936;2023-05-29T05:16:18;17.30;99.90
13682;DHT22;6913;49.892;7.936;2023-05-29T05:18:45;17.50;99.90
13682;DHT22;6913;49.892;7.936;2023-05-29T05:21:12;17.60;99.90
13682;DHT22;6913;49.892;7.936;2023-05-29T05:23:38;18.10;99.90
13682;DHT22;6913;49.892;7.936;2023-05-29T05:26:05;18.30;99.90
13682;DHT22;6913;49.892;7.936;2023-05-29T05:28:33;18.50;99.90
13682;DHT22;6913;49.892;7.936;2023-05-29T05:31:01;18.60;99.90
13682;DHT22;6913;49.892;7.936;2023-05-29T05:33:28;18.70;99.90
13682;DHT22;6913;49.892;7.936;2023-05-29T05:35:54;19.10;99.90
13682;DHT22;6913;49.892;7.936;2023-05-29T05:38:21;19.30;99.90
13682;DHT22;6913;49.892;7.936;2023-05-29T05:40:48;19.60;99.90
13682;DHT22;6913;49.892;7.936;2023-05-29T05:43:15;19.50;99.90
13682;DHT22;6913;49.892;7.936;2023-05-29T05:45:43;19.60;99.90
13682;DHT22;6913;49.892;7.936;2023-05-29T05:48:10;19.80;99.90
13682;DHT22;6913;49.892;7.936;2023-05-29T05:50:36;19.90;99.90
13682;DHT22;6913;49.892;7.936;2023-05-29T05:53:03;20.20;99.90
13682;DHT22;6913;49.892;7.936;2023-05-29T05:55:30;20.50;99.90
13682;DHT22;6913;49.892;7.936;2023-05-29T05:57:57;20.60;99.90
13682;DHT22;6913;49.892;7.936;2023-05-29T06:00:24;20.50;99.90
13682;DHT22;6913;49.892;7.936;2023-05-29T06:02:52;20.40;99.90
13682;DHT22;6913;49.892;7.936;2023-05-29T06:05:19;20.40;99.90
13682;DHT22;6913;49.892;7.936;2023-05-29T06:07:46;20.60;99.90
13682;DHT22;6913;49.892;7.936;2023-05-29T06:10:13;20.80;99.90
13682;DHT22;6913;49.892;7.936;2023-05-29T06:12:40;20.70;99.90
13682;DHT22;6913;49.892;7.936;2023-05-29T06:15:07;20.90;99.90
13682;DHT22;6913;49.892;7.936;2023-05-29T06:17:34;21.20;99.90
13682;DHT22;6913;49.892;7.936;2023-05-29T06:20:03;21.60;99.90
13682;DHT22;6913;49.892;7.936;2023-05-29T06:22:35;21.80;99.90
13682;DHT22;6913;49.892;7.936;2023-05-29T06:25:02;21.80;99.90
13682;DHT22;6913;49.892;7.936;2023-05-29T06:27:30;21.80;99.90
13682;DHT22;6913;49.892;7.936;2023-05-29T06:29:57;21.90;99.90
13682;DHT22;6913;49.892;7.936;2023-05-29T06:32:23;21.90;99.90
13682;DHT22;6913;49.892;7.936;2023-05-29T06:34:51;22.10;99.90
13682;DHT22;6913;49.892;7.936;2023-05-29T06:37:19;22.50;99.90
13682;DHT22;6913;49.892;7.936;2023-05-29T06:39:46;22.60;99.90
13682;DHT22;6913;49.892;7.936;2023-05-29T06:42:13;22.90;99.90
13682;DHT22;6913;49.892;7.936;2023-05-29T06:44:39;22.20;99.90
13682;DHT22;6913;49.892;7.936;2023-05-29T06:47:06;22.20;99.90
13682;DHT22;6913;49.892;7.936;2023-05-29T06:49:33;22.40;99.90
13682;DHT22;6913;49.892;7.936;2023-05-29T06:52:00;23.00;99.90
13682;DHT22;6913;49.892;7.936;2023-05-29T06:54:28;23.20;99.90
13682;DHT22;6913;49.892;7.936;2023-05-29T06:56:55;23.70;99.90
13682;DHT22;6913;49.892;7.936;2023-05-29T06:59:22;24.20;99.90
13682;DHT22;6913;49.892;7.936;2023-05-29T07:01:49;24.50;99.90
13682;DHT22;6913;49.892;7.936;2023-05-29T07:04:15;24.90;99.90
13682;DHT22;6913;49.892;7.936;2023-05-29T07:06:42;24.60;99.90
13682;DHT22;6913;49.892;7.936;2023-05-29T07:09:09;24.50;99.90
13682;DHT22;6913;49.892;7.936;2023-05-29T07:11:38;24.30;99.90
13682;DHT22;6913;49.892;7.936;2023-05-29T07:14:04;24.30;99.90
13682;DHT22;6913;49.892;7.936;2023-05-29T07:16:32;24.80;99.90
13682;DHT22;6913;49.892;7.936;2023-05-29T07:18:58;24.50;97.10
13682;DHT22;6913;49.892;7.936;2023-05-29T07:21:25;24.20;99.20
13682;DHT22;6913;49.892;7.936;2023-05-29T07:23:52;24.30;97.50
13682;DHT22;6913;49.892;7.936;2023-05-29T07:26:19;24.00;97.10
13682;DHT22;6913;49.892;7.936;2023-05-29T07:28:48;24.00;98.80
13682;DHT22;6913;49.892;7.936;2023-05-29T07:31:15;24.00;98.50
13682;DHT22;6913;49.892;7.936;2023-05-29T07:33:42;24.40;99.90
13682;DHT22;6913;49.892;7.936;2023-05-29T07:36:09;23.50;99.90
13682;DHT22;6913;49.892;7.936;2023-05-29T07:38:36;24.10;99.60
13682;DHT22;6913;49.892;7.936;2023-05-29T07:41:03;24.40;97.80
13682;DHT22;6913;49.892;7.936;2023-05-29T07:43:30;24.50;98.70
13682;DHT22;6913;49.892;7.936;2023-05-29T07:45:58;24.60;99.90
13682;DHT22;6913;49.892;7.936;2023-05-29T07:48:25;24.50;97.50
13682;DHT22;6913;49.892;7.936;2023-05-29T07:50:51;23.90;97.20
13682;DHT22;6913;49.892;7.936;2023-05-29T07:53:18;24.00;99.90
13682;DHT22;6913;49.892;7.936;2023-05-29T07:55:45;24.70;98.10
13682;DHT22;6913;49.892;7.936;2023-05-29T07:58:12;24.90;97.20
13682;DHT22;6913;49.892;7.936;2023-05-29T08:00:39;25.10;95.50
13682;DHT22;6913;49.892;7.936;2023-05-29T08:03:07;25.40;97.30
13682;DHT22;6913;49.892;7.936;2023-05-29T08:05:33;25.20;95.20
13682;DHT22;6913;49.892;7.936;2023-05-29T08:08:00;25.40;95.80
13682;DHT22;6913;49.892;7.936;2023-05-29T08:10:27;25.90;95.30
13682;DHT22;6913;49.892;7.936;2023-05-29T08:12:54;25.20;95.30
13682;DHT22;6913;49.892;7.936;2023-05-29T08:15:21;25.40;95.30
13682;DHT22;6913;49.892;7.936;2023-05-29T08:17:49;24.80;96.40
13682;DHT22;6913;49.892;7.936;2023-05-29T08:20:17;25.10;99.20
13682;DHT22;6913;49.892;7.936;2023-05-29T08:22:44;26.30;98.00
13682;DHT22;6913;49.892;7.936;2023-05-29T08:25:11;26.60;95.70
13682;DHT22;6913;49.892;7.936;2023-05-29T08:27:38;25.10;97.80
13682;DHT22;6913;49.892;7.936;2023-05-29T08:30:06;24.80;97.00
13682;DHT22;6913;49.892;7.936;2023-05-29T08:32:33;25.30;97.70
13682;DHT22;6913;49.892;7.936;2023-05-29T08:35:00;25.70;96.10
13682;DHT22;6913;49.892;7.936;2023-05-29T08:37:28;26.00;96.10
13682;DHT22;6913;49.892;7.936;2023-05-29T08:39:55;26.20;98.40
13682;DHT22;6913;49.892;7.936;2023-05-29T08:42:28;26.60;93.60
13682;DHT22;6913;49.892;7.936;2023-05-29T08:45:02;25.10;92.60
13682;DHT22;6913;49.892;7.936;2023-05-29T08:47:32;25.70;95.60
13682;DHT22;6913;49.892;7.936;2023-05-29T08:50:01;25.70;92.10
13682;DHT22;6913;49.892;7.936;2023-05-29T08:52:32;24.50;95.50
13682;DHT22;6913;49.892;7.936;2023-05-29T08:55:01;24.30;96.10
13682;DHT22;6913;49.892;7.936;2023-05-29T08:57:28;25.40;98.00
13682;DHT22;6913;49.892;7.936;2023-05-29T08:59:56;24.50;95.40
13682;DHT22;6913;49.892;7.936;2023-05-29T09:02:23;24.40;97.70
13682;DHT22;6913;49.892;7.936;2023-05-29T09:04:50;24.30;97.50
13682;DHT22;6913;49.892;7.936;2023-05-29T09:07:18;24.50;95.60
13682;DHT22;6913;49.892;7.936;2023-05-29T09:09:47;25.10;95.90
13682;DHT22;6913;49.892;7.936;2023-05-29T09:12:14;26.40;93.60
13682;DHT22;6913;49.892;7.936;2023-05-29T09:14:43;27.20;91.90
13682;DHT22;6913;49.892;7.936;2023-05-29T09:17:11;26.10;92.30
13682;DHT22;6913;49.892;7.936;2023-05-29T09:19:39;26.10;93.30
13682;DHT22;6913;49.892;7.936;2023-05-29T09:22:07;26.30;92.80
13682;DHT22;6913;49.892;7.936;2023-05-29T09:24:36;25.70;91.00
13682;DHT22;6913;49.892;7.936;2023-05-29T09:27:05;25.20;90.20
13682;DHT22;6913;49.892;7.936;2023-05-29T09:29:37;24.50;93.40
13682;DHT22;6913;49.892;7.936;2023-05-29T09:32:07;25.30;91.30
13682;DHT22;6913;49.892;7.936;2023-05-29T09:34:35;25.50;92.10
13682;DHT22;6913;49.892;7.936;2023-05-29T09:37:03;25.20;93.20
13682;DHT22;6913;49.892;7.936;2023-05-29T09:39:34;24.50;91.00
13682;DHT22;6913;49.892;7.936;2023-05-29T09:42:11;24.90;91.30
13682;DHT22;6913;49.892;7.936;2023-05-29T09:44:38;24.80;92.70
13682;DHT22;6913;49.892;7.936;2023-05-29T09:47:06;24.50;92.40
13682;DHT22;6913;49.892;7.936;2023-05-29T09:49:33;24.80;92.40
13682;DHT22;6913;49.892;7.936;2023-05-29T09:52:00;24.90;91.90
13682;DHT22;6913;49.892;7.936;2023-05-29T09:54:28;24.50;96.20
13682;DHT22;6913;49.892;7.936;2023-05-29T09:56:56;24.40;93.40
13682;DHT22;6913;49.892;7.936;2023-05-29T09:59:26;24.90;93.70
13682;DHT22;6913;49.892;7.936;2023-05-29T10:02:00;25.00;89.60
13682;DHT22;6913;49.892;7.936;2023-05-29T10:04:29;25.00;93.30
13682;DHT22;6913;49.892;7.936;2023-05-29T10:07:01;26.20;95.90
13682;DHT22;6913;49.892;7.936;2023-05-29T10:09:30;26.60;92.60
13682;DHT22;6913;49.892;7.936;2023-05-29T10:12:00;26.70;90.10
13682;DHT22;6913;49.892;7.936;2023-05-29T10:14:31;25.70;88.10
13682;DHT22;6913;49.892;7.936;2023-05-29T10:17:02;25.30;92.40
13682;DHT22;6913;49.892;7.936;2023-05-29T10:19:36;25.00;88.20
13682;DHT22;6913;49.892;7.936;2023-05-29T10:22:04;26.10;90.60
13682;DHT22;6913;49.892;7.936;2023-05-29T10:24:33;26.10;92.10
13682;DHT22;6913;49.892;7.936;2023-05-29T10:27:01;25.70;85.00
13682;DHT22;6913;49.892;7.936;2023-05-29T10:29:31;25.70;85.30
13682;DHT22;6913;49.892;7.936;2023-05-29T10:32:07;25.40;88.30
13682;DHT22;6913;49.892;7.936;2023-05-29T10:34:39;26.00;90.70
13682;DHT22;6913;49.892;7.936;2023-05-29T10:37:13;25.30;88.00
13682;DHT22;6913;49.892;7.936;2023-05-29T10:39:42;25.50;91.20
13682;DHT22;6913;49.892;7.936;2023-05-29T10:42:43;25.70;90.90
13682;DHT22;6913;49.892;7.936;2023-05-29T10:45:48;25.20;90.40
13682;DHT22;6913;49.892;7.936;2023-05-29T10:48:37;26.50;86.60
13682;DHT22;6913;49.892;7.936;2023-05-29T10:51:05;25.30;91.10
13682;DHT22;6913;49.892;7.936;2023-05-29T10:53:33;25.40;88.90
13682;DHT22;6913;49.892;7.936;2023-05-29T10:56:08;26.50;86.40
13682;DHT22;6913;49.892;7.936;2023-05-29T10:58:36;26.20;92.70
13682;DHT22;6913;49.892;7.936;2023-05-29T11:01:08;26.70;88.20
13682;DHT22;6913;49.892;7.936;2023-05-29T11:03:35;25.90;91.00
13682;DHT22;6913;49.892;7.936;2023-05-29T11:06:03;26.00;87.50
13682;DHT22;6913;49.892;7.936;2023-05-29T11:08:33;26.20;85.00
13682;DHT22;6913;49.892;7.936;2023-05-29T11:11:01;25.30;80.30
13682;DHT22;6913;49.892;7.936;2023-05-29T11:13:32;25.00;86.60
13682;DHT22;6913;49.892;7.936;2023-05-29T11:16:12;25.60;84.30
13682;DHT22;6913;49.892;7.936;2023-05-29T11:18:44;25.70;84.90
13682;DHT22;6913;49.892;7.936;2023-05-29T11:21:30;25.80;85.80
13682;DHT22;6913;49.892;7.936;2023-05-29T11:23:59;26.00;90.30
13682;DHT22;6913;49.892;7.936;2023-05-29T11:26:29;26.60;84.50
13682;DHT22;6913;49.892;7.936;2023-05-29T11:28:58;26.70;86.80
13682;DHT22;6913;49.892;7.936;2023-05-29T11:31:27;27.20;78.90
13682;DHT22;6913;49.892;7.936;2023-05-29T11:33:59;27.00;79.70
13682;DHT22;6913;49.892;7.936;2023-05-29T11:36:26;26.30;80.60
13682;DHT22;6913;49.892;7.936;2023-05-29T11:38:54;27.40;81.30
13682;DHT22;6913;49.892;7.936;2023-05-29T11:41:21;28.40;76.40
13682;DHT22;6913;49.892;7.936;2023-05-29T11:43:56;28.00;75.30
13682;DHT22;6913;49.892;7.936;2023-05-29T11:46:25;26.80;83.00
13682;DHT22;6913;49.892;7.936;2023-05-29T11:48:53;26.60;85.50
13682;DHT22;6913;49.892;7.936;2023-05-29T11:51:20;26.70;84.40
13682;DHT22;6913;49.892;7.936;2023-05-29T11:53:48;27.10;78.20
13682;DHT22;6913;49.892;7.936;2023-05-29T11:56:18;27.30;85.90
13682;DHT22;6913;49.892;7.936;2023-05-29T11:58:46;27.50;89.10
13682;DHT22;6913;49.892;7.936;2023-05-29T12:01:16;27.00;83.50
13682;DHT22;6913;49.892;7.936;2023-05-29T12:03:45;27.40;91.10
13682;DHT22;6913;49.892;7.936;2023-05-29T12:06:12;27.30;89.00
13682;DHT22;6913;49.892;7.936;2023-05-29T12:08:40;27.90;86.50
13682;DHT22;6913;49.892;7.936;2023-05-29T12:11:08;28.30;81.10
13682;DHT22;6913;49.892;7.936;2023-05-29T12:13:35;29.10;73.30
13682;DHT22;6913;49.892;7.936;2023-05-29T12:16:04;27.30;83.00
13682;DHT22;6913;49.892;7.936;2023-05-29T12:18:32;26.90;81.40
13682;DHT22;6913;49.892;7.936;2023-05-29T12:21:02;26.40;84.60
13682;DHT22;6913;49.892;7.936;2023-05-29T12:23:29;26.50;84.70
13682;DHT22;6913;49.892;7.936;2023-05-29T12:25:56;27.40;89.00
13682;DHT22;6913;49.892;7.936;2023-05-29T12:28:23;27.50;79.50
13682;DHT22;6913;49.892;7.936;2023-05-29T12:30:50;26.80;82.00
13682;DHT22;6913;49.892;7.936;2023-05-29T12:33:29;26.40;79.20
13682;DHT22;6913;49.892;7.936;2023-05-29T12:36:06;27.50;83.90
13682;DHT22;6913;49.892;7.936;2023-05-29T12:38:33;26.90;74.20
13682;DHT22;6913;49.892;7.936;2023-05-29T12:41:01;27.10;82.40
13682;DHT22;6913;49.892;7.936;2023-05-29T12:43:28;27.90;75.20
13682;DHT22;6913;49.892;7.936;2023-05-29T12:45:55;27.30;76.10
13682;DHT22;6913;49.892;7.936;2023-05-29T12:48:26;26.50;74.90
13682;DHT22;6913;49.892;7.936;2023-05-29T12:50:53;26.30;73.30
13682;DHT22;6913;49.892;7.936;2023-05-29T12:53:21;26.40;72.70
13682;DHT22;6913;49.892;7.936;2023-05-29T12:55:48;26.00;78.60
13682;DHT22;6913;49.892;7.936;2023-05-29T12:58:15;26.10;74.60
13682;DHT22;6913;49.892;7.936;2023-05-29T13:00:43;26.10;83.00
13682;DHT22;6913;49.892;7.936;2023-05-29T13:03:11;26.10;74.50
13682;DHT22;6913;49.892;7.936;2023-05-29T13:05:38;26.60;76.80
13682;DHT22;6913;49.892;7.936;2023-05-29T13:08:06;27.20;76.40
13682;DHT22;6913;49.892;7.936;2023-05-29T13:10:35;26.70;74.20
13682;DHT22;6913;49.892;7.936;2023-05-29T13:13:02;27.10;80.80
13682;DHT22;6913;49.892;7.936;2023-05-29T13:15:29;26.80;78.80
13682;DHT22;6913;49.892;7.936;2023-05-29T13:17:58;26.10;76.30
13682;DHT22;6913;49.892;7.936;2023-05-29T13:20:25;26.10;78.80
13682;DHT22;6913;49.892;7.936;2023-05-29T13:22:51;26.60;83.20
13682;DHT22;6913;49.892;7.936;2023-05-29T13:25:19;26.70;85.40
13682;DHT22;6913;49.892;7.936;2023-05-29T13:27:48;27.30;84.60
13682;DHT22;6913;49.892;7.936;2023-05-29T13:30:16;27.50;80.60
13682;DHT22;6913;49.892;7.936;2023-05-29T13:32:43;27.50;82.00
13682;DHT22;6913;49.892;7.936;2023-05-29T13:35:11;27.80;75.90
13682;DHT22;6913;49.892;7.936;2023-05-29T13:37:38;27.80;76.70
13682;DHT22;6913;49.892;7.936;2023-05-29T13:40:06;27.50;73.80
13682;DHT22;6913;49.892;7.936;2023-05-29T13:42:34;26.90;71.30
13682;DHT22;6913;49.892;7.936;2023-05-29T13:45:04;26.90;74.70
13682;DHT22;6913;49.892;7.936;2023-05-29T13:47:31;26.90;74.50
13682;DHT22;6913;49.892;7.936;2023-05-29T13:49:58;27.70;67.50
13682;DHT22;6913;49.892;7.936;2023-05-29T13:52:25;27.90;72.40
13682;DHT22;6913;49.892;7.936;2023-05-29T13:54:52;28.20;66.50
13682;DHT22;6913;49.892;7.936;2023-05-29T13:57:19;28.60;68.20
13682;DHT22;6913;49.892;7.936;2023-05-29T13:59:46;28.60;68.10
13682;DHT22;6913;49.892;7.936;2023-05-29T14:02:15;28.10;65.30
13682;DHT22;6913;49.892;7.936;2023-05-29T14:04:42;28.30;65.20
13682;DHT22;6913;49.892;7.936;2023-05-29T14:07:09;28.20;63.60
13682;DHT22;6913;49.892;7.936;2023-05-29T14:09:35;28.50;68.40
13682;DHT22;6913;49.892;7.936;2023-05-29T14:12:02;27.30;65.40
13682;DHT22;6913;49.892;7.936;2023-05-29T14:14:30;26.60;64.50
13682;DHT22;6913;49.892;7.936;2023-05-29T14:16:57;26.60;72.40
13682;DHT22;6913;49.892;7.936;2023-05-29T14:19:25;27.10;67.70
13682;DHT22;6913;49.892;7.936;2023-05-29T14:21:52;27.70;64.80
13682;DHT22;6913;49.892;7.936;2023-05-29T14:24:19;28.00;60.80
13682;DHT22;6913;49.892;7.936;2023-05-29T14:26:46;28.00;65.70
13682;DHT22;6913;49.892;7.936;2023-05-29T14:29:13;28.30;62.70
13682;DHT22;6913;49.892;7.936;2023-05-29T14:31:40;28.70;55.00
13682;DHT22;6913;49.892;7.936;2023-05-29T14:34:07;28.40;67.00
13682;DHT22;6913;49.892;7.936;2023-05-29T14:36:36;27.30;59.10
13682;DHT22;6913;49.892;7.936;2023-05-29T14:39:03;26.60;67.80
13682;DHT22;6913;49.892;7.936;2023-05-29T14:41:29;26.60;71.20
13682;DHT22;6913;49.892;7.936;2023-05-29T14:43:56;26.00;72.40
13682;DHT22;6913;49.892;7.936;2023-05-29T14:46:24;26.30;74.70
13682;DHT22;6913;49.892;7.936;2023-05-29T14:48:51;26.30;77.80
13682;DHT22;6913;49.892;7.936;2023-05-29T14:51:19;26.20;79.10
13682;DHT22;6913;49.892;7.936;2023-05-29T14:53:47;27.00;70.80
13682;DHT22;6913;49.892;7.936;2023-05-29T14:56:14;27.60;67.10
13682;DHT22;6913;49.892;7.936;2023-05-29T14:58:43;28.10;66.10
13682;DHT22;6913;49.892;7.936;2023-05-29T15:01:10;27.80;66.30
13682;DHT22;6913;49.892;7.936;2023-05-29T15:03:37;27.50;66.70
13682;DHT22;6913;49.892;7.936;2023-05-29T15:06:04;27.50;75.60
13682;DHT22;6913;49.892;7.936;2023-05-29T15:08:32;26.60;69.70
13682;DHT22;6913;49.892;7.936;2023-05-29T15:11:02;26.80;67.50
13682;DHT22;6913;49.892;7.936;2023-05-29T15:13:29;26.60;74.40
13682;DHT22;6913;49.892;7.936;2023-05-29T15:15:56;27.00;73.70
13682;DHT22;6913;49.892;7.936;2023-05-29T15:18:25;27.00;68.60
13682;DHT22;6913;49.892;7.936;2023-05-29T15:20:52;27.10;69.20
13682;DHT22;6913;49.892;7.936;2023-05-29T15:23:19;27.20;69.00
13682;DHT22;6913;49.892;7.936;2023-05-29T15:25:48;27.30;67.60
13682;DHT22;6913;49.892;7.936;2023-05-29T15:28:16;27.30;64.70
13682;DHT22;6913;49.892;7.936;2023-05-29T15:30:43;27.50;70.50
13682;DHT22;6913;49.892;7.936;2023-05-29T15:33:10;27.30;66.10
13682;DHT22;6913;49.892;7.936;2023-05-29T15:35:37;27.20;67.20
13682;DHT22;6913;49.892;7.936;2023-05-29T15:38:04;27.30;68.60
13682;DHT22;6913;49.892;7.936;2023-05-29T15:40:31;26.90;72.00
13682;DHT22;6913;49.892;7.936;2023-05-29T15:42:57;27.00;66.70
13682;DHT22;6913;49.892;7.936;2023-05-29T15:45:26;27.10;64.80
13682;DHT22;6913;49.892;7.936;2023-05-29T15:47:53;26.90;68.80
13682;DHT22;6913;49.892;7.936;2023-05-29T15:50:20;27.20;65.40
13682;DHT22;6913;49.892;7.936;2023-05-29T15:52:47;26.70;67.30
13682;DHT22;6913;49.892;7.936;2023-05-29T15:55:15;26.60;67.40